Time,TemperatureF,DewpointF,PressureIn,WindDirection,WindDirectionDegrees,WindSpeedMPH,WindSpeedGustMPH,Humidity,HourlyPrecipIn,Conditions,Clouds,dailyrainin,SoftwareType,DateUTC
2013-07-03 00:01:00,70.0,67.6,29.97,South,180,0.0,-999.0,92,0.00,,,0.00,Wunderground v.1.15,2013-07-03 04:01:00,
2013-07-03 00:02:00,69.9,67.5,29.97,South,180,0.0,-999.0,92,0.00,,,0.00,Wunderground v.1.15,2013-07-03 04:02:00,
2013-07-03 00:04:00,69.9,67.5,29.97,South,180,0.0,-999.0,92,0.00,,,0.00,Wunderground v.1.15,2013-07-03 04:04:00,
2013-07-03 00:05:00,69.9,67.5,29.97,South,180,0.0,-999.0,92,0.00,,,0.00,Wunderground v.1.15,2013-07-03 04:05:00,
2013-07-03 00:06:00,69.9,67.5,29.97,South,180,0.0,-999.0,92,0.00,,,0.00,Wunderground v.1.15,2013-07-03 04:06:00,
2013-07-03 00:08:00,69.8,67.4,29.97,South,180,0.0,-999.0,92,0.00,,,0.00,Wunderground v.1.15,2013-07-03 04:08:00,
2013-07-03 00:09:00,69.8,67.4,29.97,South,180,0.0,-999.0,92,0.00,,,0.00,Wunderground v.1.15,2013-07-03 04:09:00,
2013-07-03 00:15:00,69.7,67.3,29.97,South,180,0.0,-999.0,92,0.00,,,0.00,Wunderground v.1.15,2013-07-03 04:15:00,
2013-07-03 00:21:00,69.6,67.2,29.97,South,180,0.0,-999.0,92,0.00,,,0.00,Wunderground v.1.15,2013-07-03 04:21:00,
2013-07-03 00:27:00,69.4,67.0,29.97,South,180,0.0,-999.0,92,0.00,,,0.00,Wunderground v.1.15,2013-07-03 04:27:00,
2013-07-03 00:33:00,69.3,67.2,29.96,South,180,0.0,-999.0,93,0.00,,,0.00,Wunderground v.1.15,2013-07-03 04:33:00,
2013-07-03 00:34:00,69.3,67.2,29.96,South,180,0.0,-999.0,93,0.00,,,0.00,Wunderground v.1.15,2013-07-03 04:34:00,
2013-07-03 00:40:00,69.2,66.8,29.96,South,180,0.0,-999.0,92,0.00,,,0.00,Wunderground v.1.15,2013-07-03 04:40:00,
2013-07-03 00:46:00,69.1,66.7,29.96,South,180,0.0,-999.0,92,0.00,,,0.00,Wunderground v.1.15,2013-07-03 04:46:00,
2013-07-03 00:48:00,69.1,67.0,29.96,South,180,0.0,-999.0,93,0.00,,,0.00,Wunderground v.1.15,2013-07-03 04:48:00,
2013-07-03 00:54:00,68.9,66.8,29.97,South,180,0.0,-999.0,93,0.00,,,0.00,Wunderground v.1.15,2013-07-03 04:54:00,
2013-07-03 00:58:00,68.9,66.8,29.97,South,180,0.0,-999.0,93,0.00,,,0.00,Wunderground v.1.15,2013-07-03 04:58:00,
2013-07-03 01:03:00,68.9,66.8,29.97,South,180,0.0,-999.0,93,0.00,,,0.00,Wunderground v.1.15,2013-07-03 05:03:00,
2013-07-03 01:09:00,68.9,66.8,29.97,South,180,0.0,-999.0,93,0.00,,,0.00,Wunderground v.1.15,2013-07-03 05:09:00,
2013-07-03 01:14:00,68.8,66.7,29.97,South,180,0.0,-999.0,93,0.00,,,0.00,Wunderground v.1.15,2013-07-03 05:14:00,
2013-07-03 01:20:00,68.7,66.6,29.97,South,180,0.0,-999.0,93,0.00,,,0.00,Wunderground v.1.15,2013-07-03 05:20:00,
2013-07-03 01:22:00,68.6,66.5,29.97,South,180,0.0,-999.0,93,0.00,,,0.00,Wunderground v.1.15,2013-07-03 05:22:00,
2013-07-03 01:28:00,68.5,66.4,29.97,South,180,0.0,-999.0,93,0.00,,,0.00,Wunderground v.1.15,2013-07-03 05:28:00,
2013-07-03 01:34:00,68.4,66.3,29.97,South,180,0.0,-999.0,93,0.00,,,0.00,Wunderground v.1.15,2013-07-03 05:34:00,
2013-07-03 01:40:00,68.3,66.2,29.97,South,180,0.0,-999.0,93,0.00,,,0.00,Wunderground v.1.15,2013-07-03 05:40:00,
2013-07-03 01:46:00,68.2,66.1,29.96,South,180,0.0,-999.0,93,0.00,,,0.00,Wunderground v.1.15,2013-07-03 05:46:00,
2013-07-03 01:51:00,68.2,66.1,29.97,South,180,0.0,-999.0,93,0.00,,,0.00,Wunderground v.1.15,2013-07-03 05:51:00,
2013-07-03 01:55:00,68.2,66.1,29.97,South,180,0.0,-999.0,93,0.00,,,0.00,Wunderground v.1.15,2013-07-03 05:55:00,
2013-07-03 01:57:00,68.2,66.1,29.97,South,180,0.0,-999.0,93,0.00,,,0.00,Wunderground v.1.15,2013-07-03 05:57:00,
2013-07-03 02:00:00,68.2,66.1,29.96,South,180,0.0,-999.0,93,0.00,,,0.00,Wunderground v.1.15,2013-07-03 06:00:00,
2013-07-03 02:02:00,68.1,66.0,29.96,South,180,0.0,-999.0,93,0.00,,,0.00,Wunderground v.1.15,2013-07-03 06:02:00,
2013-07-03 02:08:00,68.1,66.3,29.96,South,180,0.0,-999.0,94,0.00,,,0.00,Wunderground v.1.15,2013-07-03 06:08:00,
2013-07-03 02:13:00,68.1,66.3,29.96,South,180,0.0,-999.0,94,0.00,,,0.00,Wunderground v.1.15,2013-07-03 06:13:00,
2013-07-03 02:17:00,68.1,66.3,29.96,South,180,0.0,-999.0,94,0.00,,,0.00,Wunderground v.1.15,2013-07-03 06:17:00,
2013-07-03 02:18:00,68.1,66.3,29.96,South,180,0.0,-999.0,94,0.00,,,0.00,Wunderground v.1.15,2013-07-03 06:18:00,
2013-07-03 02:23:00,68.1,66.3,29.96,South,180,0.0,-999.0,94,0.00,,,0.00,Wunderground v.1.15,2013-07-03 06:23:00,
2013-07-03 02:24:00,68.1,66.3,29.96,South,180,0.0,-999.0,94,0.00,,,0.00,Wunderground v.1.15,2013-07-03 06:24:00,
2013-07-03 02:26:00,68.1,66.3,29.96,South,180,0.0,-999.0,94,0.00,,,0.00,Wunderground v.1.15,2013-07-03 06:26:00,
2013-07-03 02:31:00,68.1,66.3,29.96,South,180,0.0,-999.0,94,0.00,,,0.00,Wunderground v.1.15,2013-07-03 06:31:00,
2013-07-03 02:38:00,68.3,66.5,29.97,South,180,0.0,-999.0,94,0.00,,,0.00,Wunderground v.1.15,2013-07-03 06:38:00,
2013-07-03 02:44:00,68.4,66.6,29.97,South,180,0.0,-999.0,94,0.00,,,0.00,Wunderground v.1.15,2013-07-03 06:44:00,
2013-07-03 02:50:00,68.5,66.7,29.96,South,180,0.0,-999.0,94,0.00,,,0.00,Wunderground v.1.15,2013-07-03 06:50:00,
2013-07-03 02:56:00,68.5,66.7,29.96,South,180,0.0,-999.0,94,0.00,,,0.00,Wunderground v.1.15,2013-07-03 06:56:00,
2013-07-03 03:02:00,68.5,66.7,29.96,South,180,0.0,-999.0,94,0.00,,,0.00,Wunderground v.1.15,2013-07-03 07:02:00,
2013-07-03 03:07:00,68.6,66.8,29.97,South,180,0.0,-999.0,94,0.00,,,0.00,Wunderground v.1.15,2013-07-03 07:07:00,
2013-07-03 03:13:00,68.6,66.8,29.96,South,180,0.0,-999.0,94,0.00,,,0.00,Wunderground v.1.15,2013-07-03 07:13:00,
2013-07-03 03:19:00,68.7,66.9,29.96,South,180,0.0,-999.0,94,0.00,,,0.00,Wunderground v.1.15,2013-07-03 07:19:00,
2013-07-03 03:23:00,68.7,66.9,29.96,South,180,0.0,-999.0,94,0.00,,,0.00,Wunderground v.1.15,2013-07-03 07:23:00,
2013-07-03 03:29:00,68.8,67.0,29.96,South,180,0.0,-999.0,94,0.00,,,0.00,Wunderground v.1.15,2013-07-03 07:29:00,
2013-07-03 03:35:00,68.8,67.0,29.96,South,180,0.0,-999.0,94,0.00,,,0.00,Wunderground v.1.15,2013-07-03 07:35:00,
2013-07-03 03:39:00,68.8,67.0,29.96,South,180,0.0,-999.0,94,0.00,,,0.00,Wunderground v.1.15,2013-07-03 07:39:00,
2013-07-03 03:45:00,68.8,67.0,29.96,South,180,0.0,-999.0,94,0.00,,,0.00,Wunderground v.1.15,2013-07-03 07:45:00,
2013-07-03 03:51:00,68.8,67.0,29.96,South,180,0.0,-999.0,94,0.00,,,0.00,Wunderground v.1.15,2013-07-03 07:51:00,
2013-07-03 03:53:00,68.8,67.0,29.97,South,180,0.0,-999.0,94,0.00,,,0.00,Wunderground v.1.15,2013-07-03 07:53:00,
2013-07-03 03:59:00,68.8,67.0,29.97,South,180,0.0,-999.0,94,0.00,,,0.00,Wunderground v.1.15,2013-07-03 07:59:00,
2013-07-03 04:04:00,68.9,67.1,29.97,South,180,0.0,-999.0,94,0.00,,,0.00,Wunderground v.1.15,2013-07-03 08:04:00,
2013-07-03 04:07:00,68.9,67.1,29.97,South,180,0.0,-999.0,94,0.00,,,0.00,Wunderground v.1.15,2013-07-03 08:07:00,
2013-07-03 04:11:00,68.9,67.1,29.97,South,180,0.0,-999.0,94,0.00,,,0.00,Wunderground v.1.15,2013-07-03 08:11:00,
2013-07-03 04:16:00,68.9,67.1,29.97,South,180,0.0,-999.0,94,0.00,,,0.00,Wunderground v.1.15,2013-07-03 08:16:00,
2013-07-03 04:19:00,68.9,67.1,29.97,South,180,0.0,-999.0,94,0.00,,,0.00,Wunderground v.1.15,2013-07-03 08:19:00,
2013-07-03 04:20:00,68.9,67.1,29.97,South,180,0.0,-999.0,94,0.00,,,0.00,Wunderground v.1.15,2013-07-03 08:20:00,
2013-07-03 04:25:00,68.9,67.1,29.97,South,180,0.0,-999.0,94,0.00,,,0.00,Wunderground v.1.15,2013-07-03 08:25:00,
2013-07-03 04:31:00,69.0,67.2,29.97,South,180,0.0,-999.0,94,0.00,,,0.00,Wunderground v.1.15,2013-07-03 08:31:00,
2013-07-03 04:37:00,69.0,67.2,29.97,South,180,0.0,-999.0,94,0.00,,,0.00,Wunderground v.1.15,2013-07-03 08:37:00,
2013-07-03 04:42:00,69.0,67.2,29.97,South,180,0.0,-999.0,94,0.00,,,0.00,Wunderground v.1.15,2013-07-03 08:42:00,
2013-07-03 04:48:00,69.1,67.3,29.97,South,180,0.0,-999.0,94,0.00,,,0.00,Wunderground v.1.15,2013-07-03 08:48:00,
2013-07-03 04:50:00,69.1,67.3,29.98,South,180,0.0,-999.0,94,0.00,,,0.00,Wunderground v.1.15,2013-07-03 08:50:00,
2013-07-03 04:55:00,69.2,67.4,29.98,South,180,0.0,-999.0,94,0.00,,,0.00,Wunderground v.1.15,2013-07-03 08:55:00,
2013-07-03 05:01:00,69.2,67.4,29.98,South,180,0.0,-999.0,94,0.00,,,0.00,Wunderground v.1.15,2013-07-03 09:01:00,
2013-07-03 05:07:00,69.2,67.4,29.98,South,180,0.0,-999.0,94,0.00,,,0.00,Wunderground v.1.15,2013-07-03 09:07:00,
2013-07-03 05:13:00,69.2,67.4,29.98,South,180,0.0,-999.0,94,0.00,,,0.00,Wunderground v.1.15,2013-07-03 09:13:00,
2013-07-03 05:19:00,69.3,67.5,29.98,South,180,0.0,-999.0,94,0.00,,,0.00,Wunderground v.1.15,2013-07-03 09:19:00,
2013-07-03 05:24:00,69.3,67.5,29.98,South,180,0.0,-999.0,94,0.00,,,0.00,Wunderground v.1.15,2013-07-03 09:24:00,
2013-07-03 05:30:00,69.2,67.4,29.99,South,180,0.0,-999.0,94,0.00,,,0.00,Wunderground v.1.15,2013-07-03 09:30:00,
2013-07-03 05:36:00,69.1,67.3,29.99,South,180,0.0,-999.0,94,0.00,,,0.00,Wunderground v.1.15,2013-07-03 09:36:00,
2013-07-03 05:41:00,69.0,67.2,29.99,South,180,0.0,-999.0,94,0.00,,,0.00,Wunderground v.1.15,2013-07-03 09:41:00,
2013-07-03 05:42:00,69.0,67.2,29.99,South,180,0.0,-999.0,94,0.00,,,0.00,Wunderground v.1.15,2013-07-03 09:42:00,
2013-07-03 05:48:00,68.9,67.1,29.99,South,180,0.0,-999.0,94,0.00,,,0.00,Wunderground v.1.15,2013-07-03 09:48:00,
2013-07-03 05:52:00,68.8,67.0,30.00,South,180,0.0,-999.0,94,0.00,,,0.00,Wunderground v.1.15,2013-07-03 09:52:00,
2013-07-03 05:58:00,68.9,67.1,30.00,South,180,0.0,-999.0,94,0.00,,,0.00,Wunderground v.1.15,2013-07-03 09:58:00,
2013-07-03 06:01:00,68.9,67.1,30.00,South,180,0.0,-999.0,94,0.00,,,0.00,Wunderground v.1.15,2013-07-03 10:01:00,
2013-07-03 06:05:00,68.9,67.1,29.99,South,180,0.0,-999.0,94,0.00,,,0.00,Wunderground v.1.15,2013-07-03 10:05:00,
2013-07-03 06:10:00,68.9,67.1,30.00,South,180,0.0,-999.0,94,0.00,,,0.00,Wunderground v.1.15,2013-07-03 10:10:00,
2013-07-03 06:15:00,69.0,67.2,30.00,South,180,1.0,-999.0,94,0.00,,,0.00,Wunderground v.1.15,2013-07-03 10:15:00,
2013-07-03 06:21:00,69.2,67.4,30.00,South,180,1.0,-999.0,94,0.00,,,0.00,Wunderground v.1.15,2013-07-03 10:21:00,
2013-07-03 06:27:00,69.3,67.5,30.01,South,180,1.0,-999.0,94,0.00,,,0.00,Wunderground v.1.15,2013-07-03 10:27:00,
2013-07-03 06:33:00,69.2,67.4,30.01,South,180,0.0,-999.0,94,0.00,,,0.00,Wunderground v.1.15,2013-07-03 10:33:00,
2013-07-03 06:38:00,69.3,67.5,30.01,South,180,0.0,-999.0,94,0.00,,,0.00,Wunderground v.1.15,2013-07-03 10:38:00,
2013-07-03 06:44:00,69.4,67.6,30.01,South,180,0.0,-999.0,94,0.00,,,0.00,Wunderground v.1.15,2013-07-03 10:44:00,
2013-07-03 06:49:00,69.4,67.6,30.02,South,180,0.0,-999.0,94,0.00,,,0.00,Wunderground v.1.15,2013-07-03 10:49:00,
2013-07-03 06:55:00,69.7,67.9,30.02,South,180,0.0,-999.0,94,0.00,,,0.00,Wunderground v.1.15,2013-07-03 10:55:00,
2013-07-03 06:56:00,69.7,67.9,30.02,South,180,0.0,-999.0,94,0.00,,,0.00,Wunderground v.1.15,2013-07-03 10:56:00,
2013-07-03 07:00:00,69.9,68.1,30.01,South,180,0.0,-999.0,94,0.00,,,0.00,Wunderground v.1.15,2013-07-03 11:00:00,
2013-07-03 07:06:00,70.4,68.6,30.02,South,180,0.0,-999.0,94,0.00,,,0.00,Wunderground v.1.15,2013-07-03 11:06:00,
2013-07-03 07:09:00,70.6,68.8,30.02,South,180,0.0,-999.0,94,0.00,,,0.00,Wunderground v.1.15,2013-07-03 11:09:00,
2013-07-03 07:15:00,70.9,69.1,30.02,South,180,1.0,-999.0,94,0.00,,,0.00,Wunderground v.1.15,2013-07-03 11:15:00,
2013-07-03 07:21:00,71.1,69.3,30.02,South,180,1.0,-999.0,94,0.00,,,0.00,Wunderground v.1.15,2013-07-03 11:21:00,
2013-07-03 07:24:00,71.1,69.3,30.02,South,179,1.0,-999.0,94,0.00,,,0.00,Wunderground v.1.15,2013-07-03 11:24:00,
2013-07-03 07:29:00,70.9,69.1,30.02,South,180,2.0,-999.0,94,0.00,,,0.00,Wunderground v.1.15,2013-07-03 11:29:00,
2013-07-03 07:31:00,70.9,69.1,30.02,South,180,2.0,-999.0,94,0.00,,,0.00,Wunderground v.1.15,2013-07-03 11:31:00,
2013-07-03 07:37:00,70.9,69.1,30.02,South,180,2.0,-999.0,94,0.00,,,0.00,Wunderground v.1.15,2013-07-03 11:37:00,
2013-07-03 07:43:00,71.0,69.2,30.03,South,191,2.0,-999.0,94,0.00,,,0.00,Wunderground v.1.15,2013-07-03 11:43:00,
2013-07-03 07:49:00,71.2,69.4,30.03,South,170,2.0,-999.0,94,0.00,,,0.00,Wunderground v.1.15,2013-07-03 11:49:00,
2013-07-03 07:50:00,71.2,69.4,30.03,South,176,3.0,-999.0,94,0.00,,,0.00,Wunderground v.1.15,2013-07-03 11:50:00,
2013-07-03 07:55:00,71.2,69.1,30.03,South,187,4.0,-999.0,93,0.00,,,0.00,Wunderground v.1.15,2013-07-03 11:55:00,
2013-07-03 08:00:00,71.2,69.1,30.03,South,180,4.0,-999.0,93,0.00,,,0.00,Wunderground v.1.15,2013-07-03 12:00:00,
2013-07-03 08:05:00,71.3,69.2,30.03,SSE,161,3.0,-999.0,93,0.00,,,0.00,Wunderground v.1.15,2013-07-03 12:05:00,
2013-07-03 08:11:00,71.3,69.2,30.03,SSE,161,3.0,-999.0,93,0.00,,,0.00,Wunderground v.1.15,2013-07-03 12:11:00,
2013-07-03 08:12:00,71.4,69.3,30.03,South,183,3.0,-999.0,93,0.00,,,0.00,Wunderground v.1.15,2013-07-03 12:12:00,
2013-07-03 08:17:00,71.6,69.5,30.04,South,181,3.0,-999.0,93,0.00,,,0.00,Wunderground v.1.15,2013-07-03 12:17:00,
2013-07-03 08:22:00,71.9,69.4,30.04,SSE,167,3.0,-999.0,92,0.00,,,0.00,Wunderground v.1.15,2013-07-03 12:22:00,
2013-07-03 08:24:00,72.1,70.0,30.04,SSW,199,3.0,-999.0,93,0.00,,,0.00,Wunderground v.1.15,2013-07-03 12:24:00,
2013-07-03 08:30:00,72.4,69.9,30.04,South,182,4.0,-999.0,92,0.00,,,0.00,Wunderground v.1.15,2013-07-03 12:30:00,
2013-07-03 08:36:00,72.9,70.1,30.04,SSE,167,5.0,-999.0,91,0.00,,,0.00,Wunderground v.1.15,2013-07-03 12:36:00,
2013-07-03 08:42:00,73.3,70.5,30.04,South,172,5.0,-999.0,91,0.00,,,0.00,Wunderground v.1.15,2013-07-03 12:42:00,
2013-07-03 08:48:00,73.7,70.6,30.04,SSE,161,4.0,-999.0,90,0.00,,,0.00,Wunderground v.1.15,2013-07-03 12:48:00,
2013-07-03 08:53:00,74.0,70.9,30.04,SSW,194,4.0,-999.0,90,0.00,,,0.00,Wunderground v.1.15,2013-07-03 12:53:00,
2013-07-03 08:59:00,74.4,70.9,30.04,South,177,4.0,-999.0,89,0.00,,,0.00,Wunderground v.1.15,2013-07-03 12:59:00,
2013-07-03 09:04:00,74.7,70.9,30.04,SSE,167,3.0,-999.0,88,0.00,,,0.00,Wunderground v.1.15,2013-07-03 13:04:00,
2013-07-03 09:10:00,74.9,70.8,30.04,SSW,200,3.0,-999.0,87,0.00,,,0.00,Wunderground v.1.15,2013-07-03 13:10:00,
2013-07-03 09:16:00,75.2,70.7,30.04,South,188,2.0,-999.0,86,0.00,,,0.00,Wunderground v.1.15,2013-07-03 13:16:00,
2013-07-03 09:22:00,75.4,70.6,30.05,SSW,193,2.0,-999.0,85,0.00,,,0.00,Wunderground v.1.15,2013-07-03 13:22:00,
2013-07-03 09:27:00,75.6,70.8,30.05,South,184,2.0,-999.0,85,0.00,,,0.00,Wunderground v.1.15,2013-07-03 13:27:00,
2013-07-03 09:29:00,75.6,70.8,30.05,South,184,2.0,-999.0,85,0.00,,,0.00,Wunderground v.1.15,2013-07-03 13:29:00,
2013-07-03 09:35:00,76.0,70.8,30.04,South,184,1.0,-999.0,84,0.00,,,0.00,Wunderground v.1.15,2013-07-03 13:35:00,
2013-07-03 09:40:00,76.1,70.9,30.05,South,184,1.0,-999.0,84,0.00,,,0.00,Wunderground v.1.15,2013-07-03 13:40:00,
2013-07-03 09:46:00,76.4,71.2,30.05,South,184,1.0,-999.0,84,0.00,,,0.00,Wunderground v.1.15,2013-07-03 13:46:00,
2013-07-03 09:52:00,76.7,71.5,30.05,South,190,1.0,-999.0,84,0.00,,,0.00,Wunderground v.1.15,2013-07-03 13:52:00,
2013-07-03 09:57:00,76.7,71.1,30.05,South,179,2.0,-999.0,83,0.00,,,0.00,Wunderground v.1.15,2013-07-03 13:57:00,
2013-07-03 10:03:00,76.6,71.0,30.05,South,190,3.0,-999.0,83,0.00,,,0.00,Wunderground v.1.15,2013-07-03 14:03:00,
2013-07-03 10:07:00,76.7,71.5,30.05,South,182,3.0,-999.0,84,0.00,,,0.00,Wunderground v.1.15,2013-07-03 14:07:00,
2013-07-03 10:11:00,76.7,71.5,30.05,SSE,165,2.0,-999.0,84,0.00,,,0.00,Wunderground v.1.15,2013-07-03 14:11:00,
2013-07-03 10:16:00,76.7,71.1,30.05,South,185,2.0,-999.0,83,0.00,,,0.00,Wunderground v.1.15,2013-07-03 14:16:00,
2013-07-03 10:21:00,76.8,71.6,30.05,South,184,2.0,-999.0,84,0.00,,,0.00,Wunderground v.1.15,2013-07-03 14:21:00,
2013-07-03 10:22:00,76.9,71.7,30.05,South,188,2.0,-999.0,84,0.00,,,0.00,Wunderground v.1.15,2013-07-03 14:22:00,
2013-07-03 10:28:00,77.5,71.9,30.05,South,188,3.0,-999.0,83,0.00,,,0.00,Wunderground v.1.15,2013-07-03 14:28:00,
2013-07-03 10:34:00,78.3,73.1,30.06,SSW,205,4.0,-999.0,84,0.00,,,0.00,Wunderground v.1.15,2013-07-03 14:34:00,
2013-07-03 10:38:00,78.4,72.1,30.06,South,173,5.0,-999.0,81,0.00,,,0.00,Wunderground v.1.15,2013-07-03 14:38:00,
2013-07-03 10:44:00,78.3,72.3,30.06,SSW,204,5.0,-999.0,82,0.00,,,0.00,Wunderground v.1.15,2013-07-03 14:44:00,
2013-07-03 10:45:00,78.3,72.0,30.06,South,188,5.0,-999.0,81,0.00,,,0.00,Wunderground v.1.15,2013-07-03 14:45:00,
2013-07-03 10:51:00,78.0,71.7,30.06,SSW,209,2.0,-999.0,81,0.00,,,0.00,Wunderground v.1.15,2013-07-03 14:51:00,
2013-07-03 10:57:00,78.3,72.3,30.06,South,190,2.0,-999.0,82,0.00,,,0.00,Wunderground v.1.15,2013-07-03 14:57:00,
2013-07-03 10:59:00,78.4,72.1,30.06,South,169,2.0,-999.0,81,0.00,,,0.00,Wunderground v.1.15,2013-07-03 14:59:00,
2013-07-03 11:00:00,78.5,72.2,30.06,SSW,197,2.0,-999.0,81,0.00,,,0.00,Wunderground v.1.15,2013-07-03 15:00:00,
2013-07-03 11:03:00,78.6,71.9,30.06,SSW,205,3.0,-999.0,80,0.00,,,0.00,Wunderground v.1.15,2013-07-03 15:03:00,
2013-07-03 11:08:00,78.6,71.5,30.06,SSW,192,4.0,-999.0,79,0.00,,,0.00,Wunderground v.1.15,2013-07-03 15:08:00,
2013-07-03 11:13:00,78.6,71.9,30.06,SSW,200,4.0,-999.0,80,0.00,,,0.00,Wunderground v.1.15,2013-07-03 15:13:00,
2013-07-03 11:15:00,78.7,72.0,30.06,South,186,5.0,-999.0,80,0.00,,,0.00,Wunderground v.1.15,2013-07-03 15:15:00,
2013-07-03 11:21:00,79.0,72.3,30.06,SSW,194,4.0,-999.0,80,0.00,,,0.00,Wunderground v.1.15,2013-07-03 15:21:00,